sensor_id;sensor_type;location;lat;lon;timestamp;P1;durP1;ratioP1;P2;durP2;ratioP2
72109;SDS011;59983;52.010;5.420;2023-07-09T00:01:56;9.02;;;6.75;;
72109;SDS011;59983;52.010;5.420;2023-07-09T00:04:23;7.20;;;6.10;;
72109;SDS011;59983;52.010;5.420;2023-07-09T00:06:50;6.35;;;5.78;;
72109;SDS011;59983;52.010;5.420;2023-07-09T00:09:18;8.67;;;7.33;;
72109;SDS011;59983;52.010;5.420;2023-07-09T00:11:47;6.60;;;6.00;;
72109;SDS011;59983;52.010;5.420;2023-07-09T00:14:14;6.78;;;6.07;;
72109;SDS011;59983;52.010;5.420;2023-07-09T00:16:43;7.28;;;6.68;;
72109;SDS011;59983;52.010;5.420;2023-07-09T00:19:15;8.32;;;6.10;;
72109;SDS011;59983;52.010;5.420;2023-07-09T00:21:45;6.20;;;5.70;;
72109;SDS011;59983;52.010;5.420;2023-07-09T00:24:14;8.65;;;6.53;;
72109;SDS011;59983;52.010;5.420;2023-07-09T00:26:41;8.15;;;6.50;;
72109;SDS011;59983;52.010;5.420;2023-07-09T00:29:11;7.55;;;6.55;;
72109;SDS011;59983;52.010;5.420;2023-07-09T00:31:38;7.97;;;6.68;;
72109;SDS011;59983;52.010;5.420;2023-07-09T00:34:12;9.17;;;6.80;;
72109;SDS011;59983;52.010;5.420;2023-07-09T00:36:41;7.63;;;6.95;;
72109;SDS011;59983;52.010;5.420;2023-07-09T00:39:15;9.20;;;7.05;;
72109;SDS011;59983;52.010;5.420;2023-07-09T00:41:44;8.20;;;7.25;;
72109;SDS011;59983;52.010;5.420;2023-07-09T00:44:26;9.05;;;6.93;;
72109;SDS011;59983;52.010;5.420;2023-07-09T00:49:34;7.95;;;7.13;;
72109;SDS011;59983;52.010;5.420;2023-07-09T00:52:20;8.43;;;7.28;;
72109;SDS011;59983;52.010;5.420;2023-07-09T00:54:48;8.68;;;6.95;;
72109;SDS011;59983;52.010;5.420;2023-07-09T00:57:17;9.18;;;7.38;;
72109;SDS011;59983;52.010;5.420;2023-07-09T00:59:49;8.13;;;6.90;;
72109;SDS011;59983;52.010;5.420;2023-07-09T01:02:20;8.15;;;7.22;;
72109;SDS011;59983;52.010;5.420;2023-07-09T01:04:51;7.82;;;7.13;;
72109;SDS011;59983;52.010;5.420;2023-07-09T01:07:21;9.23;;;6.95;;
72109;SDS011;59983;52.010;5.420;2023-07-09T01:09:47;11.05;;;7.78;;
72109;SDS011;59983;52.010;5.420;2023-07-09T01:12:14;8.27;;;6.73;;
72109;SDS011;59983;52.010;5.420;2023-07-09T01:14:45;7.68;;;6.82;;
72109;SDS011;59983;52.010;5.420;2023-07-09T01:17:14;8.20;;;7.40;;
72109;SDS011;59983;52.010;5.420;2023-07-09T01:19:42;8.95;;;7.25;;
72109;SDS011;59983;52.010;5.420;2023-07-09T01:22:14;7.53;;;6.82;;
72109;SDS011;59983;52.010;5.420;2023-07-09T01:27:24;8.15;;;7.15;;
72109;SDS011;59983;52.010;5.420;2023-07-09T01:29:54;6.70;;;6.10;;
72109;SDS011;59983;52.010;5.420;2023-07-09T01:32:21;8.68;;;6.80;;
72109;SDS011;59983;52.010;5.420;2023-07-09T01:34:50;9.38;;;7.20;;
72109;SDS011;59983;52.010;5.420;2023-07-09T01:37:20;8.17;;;6.63;;
72109;SDS011;59983;52.010;5.420;2023-07-09T01:39:51;8.57;;;6.85;;
72109;SDS011;59983;52.010;5.420;2023-07-09T01:42:19;8.48;;;7.43;;
72109;SDS011;59983;52.010;5.420;2023-07-09T01:44:50;7.82;;;7.07;;
72109;SDS011;59983;52.010;5.420;2023-07-09T01:47:19;9.05;;;7.43;;
72109;SDS011;59983;52.010;5.420;2023-07-09T01:49:48;7.37;;;6.70;;
72109;SDS011;59983;52.010;5.420;2023-07-09T01:52:15;6.60;;;5.95;;
72109;SDS011;59983;52.010;5.420;2023-07-09T01:54:45;6.95;;;6.40;;
72109;SDS011;59983;52.010;5.420;2023-07-09T01:59:45;10.30;;;6.90;;
72109;SDS011;59983;52.010;5.420;2023-07-09T02:02:12;7.50;;;6.80;;
72109;SDS011;59983;52.010;5.420;2023-07-09T02:04:46;8.90;;;7.13;;
72109;SDS011;59983;52.010;5.420;2023-07-09T02:07:17;8.65;;;7.55;;
72109;SDS011;59983;52.010;5.420;2023-07-09T02:09:44;7.95;;;7.15;;
72109;SDS011;59983;52.010;5.420;2023-07-09T02:12:12;7.28;;;6.35;;
72109;SDS011;59983;52.010;5.420;2023-07-09T02:14:39;9.90;;;7.23;;
72109;SDS011;59983;52.010;5.420;2023-07-09T02:17:07;8.32;;;7.53;;
72109;SDS011;59983;52.010;5.420;2023-07-09T02:19:35;7.05;;;6.22;;
72109;SDS011;59983;52.010;5.420;2023-07-09T02:22:02;8.15;;;7.40;;
72109;SDS011;59983;52.010;5.420;2023-07-09T02:24:29;8.90;;;8.00;;
72109;SDS011;59983;52.010;5.420;2023-07-09T02:26:57;7.97;;;7.10;;
72109;SDS011;59983;52.010;5.420;2023-07-09T02:29:25;8.55;;;7.60;;
72109;SDS011;59983;52.010;5.420;2023-07-09T02:31:54;8.23;;;7.35;;
72109;SDS011;59983;52.010;5.420;2023-07-09T02:34:22;7.68;;;6.88;;
72109;SDS011;59983;52.010;5.420;2023-07-09T02:36:52;8.85;;;7.18;;
72109;SDS011;59983;52.010;5.420;2023-07-09T02:39:19;9.77;;;7.90;;
72109;SDS011;59983;52.010;5.420;2023-07-09T02:41:46;7.63;;;6.93;;
72109;SDS011;59983;52.010;5.420;2023-07-09T02:44:13;7.97;;;7.15;;
72109;SDS011;59983;52.010;5.420;2023-07-09T02:46:40;7.40;;;6.70;;
72109;SDS011;59983;52.010;5.420;2023-07-09T02:49:08;9.88;;;6.82;;
72109;SDS011;59983;52.010;5.420;2023-07-09T02:51:36;7.10;;;6.40;;
72109;SDS011;59983;52.010;5.420;2023-07-09T02:54:03;7.88;;;6.47;;
72109;SDS011;59983;52.010;5.420;2023-07-09T02:56:30;8.45;;;7.40;;
72109;SDS011;59983;52.010;5.420;2023-07-09T02:58:57;7.40;;;6.70;;
72109;SDS011;59983;52.010;5.420;2023-07-09T03:01:24;7.00;;;6.30;;
72109;SDS011;59983;52.010;5.420;2023-07-09T03:03:56;8.10;;;7.27;;
72109;SDS011;59983;52.010;5.420;2023-07-09T03:06:26;10.40;;;7.68;;
72109;SDS011;59983;52.010;5.420;2023-07-09T03:08:52;8.05;;;7.35;;
72109;SDS011;59983;52.010;5.420;2023-07-09T03:11:19;7.25;;;6.53;;
72109;SDS011;59983;52.010;5.420;2023-07-09T03:13:47;7.82;;;6.80;;
72109;SDS011;59983;52.010;5.420;2023-07-09T03:16:15;10.97;;;6.60;;
72109;SDS011;59983;52.010;5.420;2023-07-09T03:18:42;7.90;;;7.10;;
72109;SDS011;59983;52.010;5.420;2023-07-09T03:21:09;11.35;;;8.57;;
72109;SDS011;59983;52.010;5.420;2023-07-09T03:23:35;7.43;;;6.75;;
72109;SDS011;59983;52.010;5.420;2023-07-09T03:26:02;8.23;;;7.10;;
72109;SDS011;59983;52.010;5.420;2023-07-09T03:28:30;8.00;;;6.90;;
72109;SDS011;59983;52.010;5.420;2023-07-09T03:30:57;8.68;;;7.00;;
72109;SDS011;59983;52.010;5.420;2023-07-09T03:33:24;10.15;;;7.80;;
72109;SDS011;59983;52.010;5.420;2023-07-09T03:35:51;8.07;;;7.30;;
72109;SDS011;59983;52.010;5.420;2023-07-09T03:38:18;8.75;;;7.28;;
72109;SDS011;59983;52.010;5.420;2023-07-09T03:40:45;9.40;;;7.47;;
72109;SDS011;59983;52.010;5.420;2023-07-09T03:43:15;8.50;;;7.70;;
72109;SDS011;59983;52.010;5.420;2023-07-09T03:45:43;7.93;;;7.13;;
72109;SDS011;59983;52.010;5.420;2023-07-09T03:48:10;7.50;;;6.80;;
72109;SDS011;59983;52.010;5.420;2023-07-09T03:50:37;7.93;;;7.13;;
72109;SDS011;59983;52.010;5.420;2023-07-09T03:53:03;8.40;;;6.83;;
72109;SDS011;59983;52.010;5.420;2023-07-09T03:55:32;8.77;;;7.82;;
72109;SDS011;59983;52.010;5.420;2023-07-09T03:57:58;9.85;;;7.70;;
72109;SDS011;59983;52.010;5.420;2023-07-09T04:00:25;7.97;;;7.25;;
72109;SDS011;59983;52.010;5.420;2023-07-09T04:02:51;8.05;;;7.35;;
72109;SDS011;59983;52.010;5.420;2023-07-09T04:05:18;7.63;;;6.93;;
72109;SDS011;59983;52.010;5.420;2023-07-09T04:07:45;8.85;;;6.95;;
72109;SDS011;59983;52.010;5.420;2023-07-09T04:10:11;6.90;;;6.38;;
72109;SDS011;59983;52.010;5.420;2023-07-09T04:12:39;10.07;;;7.95;;
72109;SDS011;59983;52.010;5.420;2023-07-09T04:15:06;8.60;;;7.80;;
72109;SDS011;59983;52.010;5.420;2023-07-09T04:17:33;10.00;;;8.63;;
72109;SDS011;59983;52.010;5.420;2023-07-09T04:20:00;10.98;;;8.73;;
72109;SDS011;59983;52.010;5.420;2023-07-09T04:22:26;9.85;;;8.80;;
72109;SDS011;59983;52.010;5.420;2023-07-09T04:24:53;8.93;;;8.13;;
72109;SDS011;59983;52.010;5.420;2023-07-09T04:27:19;8.57;;;7.55;;
72109;SDS011;59983;52.010;5.420;2023-07-09T04:29:46;8.77;;;7.87;;
72109;SDS011;59983;52.010;5.420;2023-07-09T04:32:14;7.72;;;6.90;;
72109;SDS011;59983;52.010;5.420;2023-07-09T04:34:41;9.27;;;7.32;;
72109;SDS011;59983;52.010;5.420;2023-07-09T04:37:09;10.02;;;7.85;;
72109;SDS011;59983;52.010;5.420;2023-07-09T04:39:38;14.13;;;7.88;;
72109;SDS011;59983;52.010;5.420;2023-07-09T04:42:05;10.33;;;9.37;;
72109;SDS011;59983;52.010;5.420;2023-07-09T04:44:33;10.50;;;8.30;;
72109;SDS011;59983;52.010;5.420;2023-07-09T04:47:03;8.70;;;7.80;;
72109;SDS011;59983;52.010;5.420;2023-07-09T04:49:30;10.65;;;8.38;;
72109;SDS011;59983;52.010;5.420;2023-07-09T04:51:56;11.15;;;8.15;;
72109;SDS011;59983;52.010;5.420;2023-07-09T04:54:25;8.53;;;7.60;;
72109;SDS011;59983;52.010;5.420;2023-07-09T04:56:52;9.07;;;8.30;;
72109;SDS011;59983;52.010;5.420;2023-07-09T04:59:19;10.00;;;8.95;;
72109;SDS011;59983;52.010;5.420;2023-07-09T05:01:46;9.50;;;8.38;;
72109;SDS011;59983;52.010;5.420;2023-07-09T05:04:13;9.98;;;8.98;;
72109;SDS011;59983;52.010;5.420;2023-07-09T05:06:39;9.30;;;8.33;;
72109;SDS011;59983;52.010;5.420;2023-07-09T05:09:06;8.88;;;7.38;;
72109;SDS011;59983;52.010;5.420;2023-07-09T05:11:34;9.60;;;8.35;;
72109;SDS011;59983;52.010;5.420;2023-07-09T05:14:02;9.07;;;8.27;;
72109;SDS011;59983;52.010;5.420;2023-07-09T05:16:29;10.90;;;8.45;;
72109;SDS011;59983;52.010;5.420;2023-07-09T05:18:56;9.63;;;7.67;;
72109;SDS011;59983;52.010;5.420;2023-07-09T05:21:23;10.20;;;8.18;;
72109;SDS011;59983;52.010;5.420;2023-07-09T05:23:49;8.70;;;7.82;;
72109;SDS011;59983;52.010;5.420;2023-07-09T05:26:16;11.07;;;8.73;;
72109;SDS011;59983;52.010;5.420;2023-07-09T05:28:42;10.32;;;9.25;;
72109;SDS011;59983;52.010;5.420;2023-07-09T05:31:09;11.83;;;9.20;;
72109;SDS011;59983;52.010;5.420;2023-07-09T05:33:36;11.10;;;8.55;;
72109;SDS011;59983;52.010;5.420;2023-07-09T05:36:02;9.95;;;8.88;;
72109;SDS011;59983;52.010;5.420;2023-07-09T05:38:30;9.30;;;8.55;;
72109;SDS011;59983;52.010;5.420;2023-07-09T05:41:00;14.50;;;9.60;;
72109;SDS011;59983;52.010;5.420;2023-07-09T05:43:30;12.20;;;10.83;;
72109;SDS011;59983;52.010;5.420;2023-07-09T05:45:57;12.75;;;10.27;;
72109;SDS011;59983;52.010;5.420;2023-07-09T05:48:23;14.55;;;10.52;;
72109;SDS011;59983;52.010;5.420;2023-07-09T05:50:52;14.27;;;12.35;;
72109;SDS011;59983;52.010;5.420;2023-07-09T05:53:20;15.57;;;13.57;;
72109;SDS011;59983;52.010;5.420;2023-07-09T05:55:47;18.47;;;14.80;;
72109;SDS011;59983;52.010;5.420;2023-07-09T05:58:14;22.23;;;14.65;;
72109;SDS011;59983;52.010;5.420;2023-07-09T06:00:41;14.25;;;12.63;;
72109;SDS011;59983;52.010;5.420;2023-07-09T06:03:08;17.45;;;12.93;;
72109;SDS011;59983;52.010;5.420;2023-07-09T06:05:36;21.50;;;16.27;;
72109;SDS011;59983;52.010;5.420;2023-07-09T06:08:05;23.67;;;15.67;;
72109;SDS011;59983;52.010;5.420;2023-07-09T06:10:31;26.27;;;16.02;;
72109;SDS011;59983;52.010;5.420;2023-07-09T06:12:58;20.65;;;17.75;;
72109;SDS011;59983;52.010;5.420;2023-07-09T06:15:25;22.02;;;16.88;;
72109;SDS011;59983;52.010;5.420;2023-07-09T06:17:52;20.25;;;16.83;;
72109;SDS011;59983;52.010;5.420;2023-07-09T06:20:18;21.37;;;16.60;;
72109;SDS011;59983;52.010;5.420;2023-07-09T06:22:45;21.92;;;16.15;;
72109;SDS011;59983;52.010;5.420;2023-07-09T06:25:12;22.90;;;16.58;;
72109;SDS011;59983;52.010;5.420;2023-07-09T06:27:38;25.67;;;17.77;;
72109;SDS011;59983;52.010;5.420;2023-07-09T06:30:05;24.67;;;19.17;;
72109;SDS011;59983;52.010;5.420;2023-07-09T06:32:32;27.00;;;19.60;;
72109;SDS011;59983;52.010;5.420;2023-07-09T06:34:59;25.50;;;18.58;;
72109;SDS011;59983;52.010;5.420;2023-07-09T06:37:25;23.02;;;19.08;;
72109;SDS011;59983;52.010;5.420;2023-07-09T06:39:52;24.55;;;19.88;;
72109;SDS011;59983;52.010;5.420;2023-07-09T06:42:18;28.60;;;19.60;;
72109;SDS011;59983;52.010;5.420;2023-07-09T06:44:45;31.33;;;20.17;;
72109;SDS011;59983;52.010;5.420;2023-07-09T06:47:11;26.45;;;19.30;;
72109;SDS011;59983;52.010;5.420;2023-07-09T06:49:38;26.75;;;19.88;;
72109;SDS011;59983;52.010;5.420;2023-07-09T06:52:05;26.45;;;21.48;;
72109;SDS011;59983;52.010;5.420;2023-07-09T06:54:32;27.45;;;20.20;;
72109;SDS011;59983;52.010;5.420;2023-07-09T06:56:58;28.90;;;19.87;;
72109;SDS011;59983;52.010;5.420;2023-07-09T06:59:25;23.23;;;17.60;;
72109;SDS011;59983;52.010;5.420;2023-07-09T07:01:51;25.63;;;18.20;;
72109;SDS011;59983;52.010;5.420;2023-07-09T07:04:18;21.25;;;17.48;;
72109;SDS011;59983;52.010;5.420;2023-07-09T07:06:45;23.50;;;18.65;;
72109;SDS011;59983;52.010;5.420;2023-07-09T07:09:14;23.93;;;17.93;;
72109;SDS011;59983;52.010;5.420;2023-07-09T07:11:41;26.42;;;18.02;;
72109;SDS011;59983;52.010;5.420;2023-07-09T07:14:08;27.88;;;18.58;;
72109;SDS011;59983;52.010;5.420;2023-07-09T07:16:34;25.35;;;17.48;;
72109;SDS011;59983;52.010;5.420;2023-07-09T07:19:01;29.88;;;18.65;;
72109;SDS011;59983;52.010;5.420;2023-07-09T07:21:27;25.20;;;18.27;;
72109;SDS011;59983;52.010;5.420;2023-07-09T07:23:54;25.10;;;17.63;;
72109;SDS011;59983;52.010;5.420;2023-07-09T07:26:21;23.33;;;16.88;;
72109;SDS011;59983;52.010;5.420;2023-07-09T07:28:48;21.27;;;16.88;;
72109;SDS011;59983;52.010;5.420;2023-07-09T07:31:16;22.52;;;17.30;;
72109;SDS011;59983;52.010;5.420;2023-07-09T07:33:43;21.97;;;16.37;;
72109;SDS011;59983;52.010;5.420;2023-07-09T07:36:10;21.77;;;15.35;;
72109;SDS011;59983;52.010;5.420;2023-07-09T07:38:40;25.75;;;15.65;;
72109;SDS011;59983;52.010;5.420;2023-07-09T07:41:06;25.55;;;16.25;;
72109;SDS011;59983;52.010;5.420;2023-07-09T07:43:33;18.58;;;15.07;;
72109;SDS011;59983;52.010;5.420;2023-07-09T07:46:00;17.67;;;13.50;;
72109;SDS011;59983;52.010;5.420;2023-07-09T07:48:26;19.92;;;13.80;;
72109;SDS011;59983;52.010;5.420;2023-07-09T07:50:58;16.55;;;12.77;;
72109;SDS011;59983;52.010;5.420;2023-07-09T07:53:29;15.40;;;12.70;;
72109;SDS011;59983;52.010;5.420;2023-07-09T07:55:57;17.02;;;13.23;;
72109;SDS011;59983;52.010;5.420;2023-07-09T07:58:24;15.67;;;12.20;;
72109;SDS011;59983;52.010;5.420;2023-07-09T08:00:54;16.20;;;11.23;;
72109;SDS011;59983;52.010;5.420;2023-07-09T08:03:23;18.75;;;10.00;;
72109;SDS011;59983;52.010;5.420;2023-07-09T08:05:50;11.25;;;9.60;;
72109;SDS011;59983;52.010;5.420;2023-07-09T08:08:17;11.00;;;9.38;;
72109;SDS011;59983;52.010;5.420;2023-07-09T08:10:44;14.50;;;9.93;;
72109;SDS011;59983;52.010;5.420;2023-07-09T08:13:11;16.27;;;11.68;;
72109;SDS011;59983;52.010;5.420;2023-07-09T08:15:37;18.42;;;11.48;;
72109;SDS011;59983;52.010;5.420;2023-07-09T08:18:04;12.30;;;10.55;;
72109;SDS011;59983;52.010;5.420;2023-07-09T08:20:31;14.77;;;9.70;;
72109;SDS011;59983;52.010;5.420;2023-07-09T08:22:59;20.63;;;11.27;;
72109;SDS011;59983;52.010;5.420;2023-07-09T08:25:26;20.40;;;12.63;;
72109;SDS011;59983;52.010;5.420;2023-07-09T08:27:53;17.50;;;11.85;;
72109;SDS011;59983;52.010;5.420;2023-07-09T08:30:20;14.27;;;9.95;;
72109;SDS011;59983;52.010;5.420;2023-07-09T08:32:47;13.38;;;10.30;;
72109;SDS011;59983;52.010;5.420;2023-07-09T08:35:14;13.43;;;10.33;;
72109;SDS011;59983;52.010;5.420;2023-07-09T08:38:01;13.27;;;9.57;;
72109;SDS011;59983;52.010;5.420;2023-07-09T08:40:28;11.45;;;9.60;;
72109;SDS011;59983;52.010;5.420;2023-07-09T08:42:56;20.90;;;9.48;;
72109;SDS011;59983;52.010;5.420;2023-07-09T08:45:35;14.02;;;8.60;;
72109;SDS011;59983;52.010;5.420;2023-07-09T08:48:24;18.67;;;9.53;;
72109;SDS011;59983;52.010;5.420;2023-07-09T08:51:10;18.08;;;9.52;;
72109;SDS011;59983;52.010;5.420;2023-07-09T08:53:57;12.07;;;9.15;;
72109;SDS011;59983;52.010;5.420;2023-07-09T08:56:26;11.23;;;8.13;;
72109;SDS011;59983;52.010;5.420;2023-07-09T08:58:58;10.55;;;8.00;;
72109;SDS011;59983;52.010;5.420;2023-07-09T09:04:13;10.50;;;8.43;;
72109;SDS011;59983;52.010;5.420;2023-07-09T09:06:46;14.18;;;8.25;;
72109;SDS011;59983;52.010;5.420;2023-07-09T09:09:33;14.50;;;8.18;;
72109;SDS011;59983;52.010;5.420;2023-07-09T09:15:02;11.97;;;7.40;;
72109;SDS011;59983;52.010;5.420;2023-07-09T09:17:35;19.35;;;7.93;;
72109;SDS011;59983;52.010;5.420;2023-07-09T09:20:06;10.77;;;7.82;;
72109;SDS011;59983;52.010;5.420;2023-07-09T09:25:29;12.13;;;8.20;;
72109;SDS011;59983;52.010;5.420;2023-07-09T09:27:59;11.57;;;7.83;;
72109;SDS011;59983;52.010;5.420;2023-07-09T09:30:27;12.77;;;8.18;;
72109;SDS011;59983;52.010;5.420;2023-07-09T09:32:55;10.80;;;7.53;;
72109;SDS011;59983;52.010;5.420;2023-07-09T09:35:31;9.18;;;7.55;;
72109;SDS011;59983;52.010;5.420;2023-07-09T09:38:00;9.88;;;6.80;;
72109;SDS011;59983;52.010;5.420;2023-07-09T09:40:28;9.63;;;6.43;;
72109;SDS011;59983;52.010;5.420;2023-07-09T09:43:00;11.88;;;7.53;;
72109;SDS011;59983;52.010;5.420;2023-07-09T09:45:31;10.50;;;6.70;;
72109;SDS011;59983;52.010;5.420;2023-07-09T09:48:20;10.27;;;6.80;;
72109;SDS011;59983;52.010;5.420;2023-07-09T09:50:54;9.88;;;6.40;;
72109;SDS011;59983;52.010;5.420;2023-07-09T09:53:28;13.97;;;6.50;;
72109;SDS011;59983;52.010;5.420;2023-07-09T09:55:56;11.18;;;6.93;;
72109;SDS011;59983;52.010;5.420;2023-07-09T09:58:29;11.38;;;7.03;;
72109;SDS011;59983;52.010;5.420;2023-07-09T10:00:57;7.15;;;5.38;;
72109;SDS011;59983;52.010;5.420;2023-07-09T10:03:37;8.15;;;6.20;;
72109;SDS011;59983;52.010;5.420;2023-07-09T10:06:12;11.03;;;5.07;;
72109;SDS011;59983;52.010;5.420;2023-07-09T10:08:46;7.97;;;5.57;;
72109;SDS011;59983;52.010;5.420;2023-07-09T10:17:07;7.45;;;5.13;;
72109;SDS011;59983;52.010;5.420;2023-07-09T10:22:38;7.32;;;5.15;;
72109;SDS011;59983;52.010;5.420;2023-07-09T10:25:14;9.15;;;5.15;;
72109;SDS011;59983;52.010;5.420;2023-07-09T10:33:40;10.47;;;5.47;;
72109;SDS011;59983;52.010;5.420;2023-07-09T10:36:36;8.45;;;4.80;;
72109;SDS011;59983;52.010;5.420;2023-07-09T10:39:28;8.93;;;4.60;;
72109;SDS011;59983;52.010;5.420;2023-07-09T10:42:02;6.20;;;4.60;;
72109;SDS011;59983;52.010;5.420;2023-07-09T10:44:34;5.60;;;4.78;;
72109;SDS011;59983;52.010;5.420;2023-07-09T10:47:05;10.17;;;5.70;;
72109;SDS011;59983;52.010;5.420;2023-07-09T10:49:41;9.45;;;5.78;;
72109;SDS011;59983;52.010;5.420;2023-07-09T10:54:41;6.13;;;5.53;;
72109;SDS011;59983;52.010;5.420;2023-07-09T11:00:21;7.57;;;5.10;;
72109;SDS011;59983;52.010;5.420;2023-07-09T11:02:58;7.18;;;5.82;;
72109;SDS011;59983;52.010;5.420;2023-07-09T11:05:29;11.45;;;5.82;;
72109;SDS011;59983;52.010;5.420;2023-07-09T11:10:30;8.85;;;5.40;;
72109;SDS011;59983;52.010;5.420;2023-07-09T11:15:41;7.05;;;5.63;;
72109;SDS011;59983;52.010;5.420;2023-07-09T11:18:22;8.25;;;4.57;;
72109;SDS011;59983;52.010;5.420;2023-07-09T11:21:00;8.00;;;4.75;;
72109;SDS011;59983;52.010;5.420;2023-07-09T11:23:38;8.18;;;4.50;;
72109;SDS011;59983;52.010;5.420;2023-07-09T11:26:46;4.40;;;4.00;;
72109;SDS011;59983;52.010;5.420;2023-07-09T11:29:16;4.75;;;4.18;;
72109;SDS011;59983;52.010;5.420;2023-07-09T11:31:45;8.57;;;4.60;;
72109;SDS011;59983;52.010;5.420;2023-07-09T11:39:39;4.93;;;3.70;;
72109;SDS011;59983;52.010;5.420;2023-07-09T11:42:26;8.98;;;3.80;;
72109;SDS011;59983;52.010;5.420;2023-07-09T11:44:57;7.60;;;4.47;;
72109;SDS011;59983;52.010;5.420;2023-07-09T11:47:30;6.97;;;4.10;;
72109;SDS011;59983;52.010;5.420;2023-07-09T11:50:23;6.00;;;4.00;;
72109;SDS011;59983;52.010;5.420;2023-07-09T11:55:53;7.07;;;4.00;;
72109;SDS011;59983;52.010;5.420;2023-07-09T11:58:20;4.90;;;4.20;;
72109;SDS011;59983;52.010;5.420;2023-07-09T12:03:37;6.68;;;4.47;;
72109;SDS011;59983;52.010;5.420;2023-07-09T12:08:52;8.65;;;4.70;;
72109;SDS011;59983;52.010;5.420;2023-07-09T12:11:27;6.80;;;4.95;;
72109;SDS011;59983;52.010;5.420;2023-07-09T12:16:53;6.25;;;4.45;;
72109;SDS011;59983;52.010;5.420;2023-07-09T12:19:21;8.13;;;5.13;;
72109;SDS011;59983;52.010;5.420;2023-07-09T12:21:56;9.30;;;4.53;;
72109;SDS011;59983;52.010;5.420;2023-07-09T12:24:25;6.93;;;4.68;;
72109;SDS011;59983;52.010;5.420;2023-07-09T12:26:54;6.00;;;5.40;;
72109;SDS011;59983;52.010;5.420;2023-07-09T12:29:25;9.07;;;5.10;;
72109;SDS011;59983;52.010;5.420;2023-07-09T12:31:52;6.53;;;4.83;;
72109;SDS011;59983;52.010;5.420;2023-07-09T12:34:22;5.53;;;5.03;;
72109;SDS011;59983;52.010;5.420;2023-07-09T12:36:49;5.93;;;5.43;;
72109;SDS011;59983;52.010;5.420;2023-07-09T12:39:18;10.80;;;6.03;;
72109;SDS011;59983;52.010;5.420;2023-07-09T12:41:49;7.35;;;5.70;;
72109;SDS011;59983;52.010;5.420;2023-07-09T12:44:21;15.50;;;6.50;;
72109;SDS011;59983;52.010;5.420;2023-07-09T12:46:50;9.40;;;6.25;;
72109;SDS011;59983;52.010;5.420;2023-07-09T12:49:26;13.88;;;7.63;;
72109;SDS011;59983;52.010;5.420;2023-07-09T12:51:55;10.00;;;8.52;;
72109;SDS011;59983;52.010;5.420;2023-07-09T12:54:23;13.15;;;9.43;;
72109;SDS011;59983;52.010;5.420;2023-07-09T12:56:51;10.53;;;7.63;;
72109;SDS011;59983;52.010;5.420;2023-07-09T12:59:26;11.13;;;7.70;;
72109;SDS011;59983;52.010;5.420;2023-07-09T13:02:12;7.90;;;6.50;;
72109;SDS011;59983;52.010;5.420;2023-07-09T13:04:40;9.52;;;5.97;;
72109;SDS011;59983;52.010;5.420;2023-07-09T13:09:52;6.90;;;5.07;;
72109;SDS011;59983;52.010;5.420;2023-07-09T13:12:27;5.88;;;4.65;;
72109;SDS011;59983;52.010;5.420;2023-07-09T13:14:56;12.60;;;5.35;;
72109;SDS011;59983;52.010;5.420;2023-07-09T13:17:32;6.60;;;5.57;;
72109;SDS011;59983;52.010;5.420;2023-07-09T13:19:59;7.82;;;5.57;;
72109;SDS011;59983;52.010;5.420;2023-07-09T13:22:27;7.93;;;5.27;;
72109;SDS011;59983;52.010;5.420;2023-07-09T13:24:55;7.95;;;5.13;;
72109;SDS011;59983;52.010;5.420;2023-07-09T13:27:22;6.70;;;5.15;;
72109;SDS011;59983;52.010;5.420;2023-07-09T13:29:49;4.88;;;4.28;;
72109;SDS011;59983;52.010;5.420;2023-07-09T13:32:16;7.35;;;5.05;;
72109;SDS011;59983;52.010;5.420;2023-07-09T13:34:44;7.83;;;5.33;;
72109;SDS011;59983;52.010;5.420;2023-07-09T13:37:11;6.15;;;5.55;;
72109;SDS011;59983;52.010;5.420;2023-07-09T13:39:39;8.63;;;5.93;;
72109;SDS011;59983;52.010;5.420;2023-07-09T13:42:14;8.02;;;5.65;;
72109;SDS011;59983;52.010;5.420;2023-07-09T13:44:44;8.82;;;5.32;;
72109;SDS011;59983;52.010;5.420;2023-07-09T13:47:16;6.57;;;5.40;;
72109;SDS011;59983;52.010;5.420;2023-07-09T13:49:45;7.80;;;5.30;;
72109;SDS011;59983;52.010;5.420;2023-07-09T13:52:16;7.43;;;5.55;;
72109;SDS011;59983;52.010;5.420;2023-07-09T13:54:47;8.07;;;5.50;;
72109;SDS011;59983;52.010;5.420;2023-07-09T13:57:15;6.07;;;5.25;;
72109;SDS011;59983;52.010;5.420;2023-07-09T13:59:47;10.93;;;5.73;;
72109;SDS011;59983;52.010;5.420;2023-07-09T14:02:22;7.18;;;5.38;;
72109;SDS011;59983;52.010;5.420;2023-07-09T14:04:50;9.30;;;5.53;;
72109;SDS011;59983;52.010;5.420;2023-07-09T14:07:27;6.63;;;4.40;;
72109;SDS011;59983;52.010;5.420;2023-07-09T14:09:57;5.78;;;4.85;;
72109;SDS011;59983;52.010;5.420;2023-07-09T14:12:24;5.63;;;5.03;;
72109;SDS011;59983;52.010;5.420;2023-07-09T14:14:52;5.47;;;3.25;;
72109;SDS011;59983;52.010;5.420;2023-07-09T14:17:22;4.82;;;3.33;;
72109;SDS011;59983;52.010;5.420;2023-07-09T14:19:49;8.60;;;3.15;;
72109;SDS011;59983;52.010;5.420;2023-07-09T14:25:01;6.97;;;3.03;;
72109;SDS011;59983;52.010;5.420;2023-07-09T14:27:29;6.88;;;2.72;;
72109;SDS011;59983;52.010;5.420;2023-07-09T14:29:56;5.03;;;3.70;;
72109;SDS011;59983;52.010;5.420;2023-07-09T14:32:30;7.50;;;3.85;;
72109;SDS011;59983;52.010;5.420;2023-07-09T14:34:59;3.90;;;2.92;;
72109;SDS011;59983;52.010;5.420;2023-07-09T14:37:27;8.27;;;3.33;;
72109;SDS011;59983;52.010;5.420;2023-07-09T14:39:54;10.70;;;3.55;;
72109;SDS011;59983;52.010;5.420;2023-07-09T14:42:21;9.77;;;4.07;;
72109;SDS011;59983;52.010;5.420;2023-07-09T14:44:49;13.95;;;3.63;;
72109;SDS011;59983;52.010;5.420;2023-07-09T14:47:20;15.88;;;5.18;;
72109;SDS011;59983;52.010;5.420;2023-07-09T14:49:49;8.57;;;4.30;;
72109;SDS011;59983;52.010;5.420;2023-07-09T14:52:19;11.32;;;5.03;;
72109;SDS011;59983;52.010;5.420;2023-07-09T14:54:48;18.95;;;6.88;;
72109;SDS011;59983;52.010;5.420;2023-07-09T14:57:21;10.68;;;6.32;;
72109;SDS011;59983;52.010;5.420;2023-07-09T14:59:52;14.10;;;7.50;;
72109;SDS011;59983;52.010;5.420;2023-07-09T15:05:02;15.38;;;7.00;;
72109;SDS011;59983;52.010;5.420;2023-07-09T15:07:29;11.85;;;6.43;;
72109;SDS011;59983;52.010;5.420;2023-07-09T15:09:57;12.40;;;6.78;;
72109;SDS011;59983;52.010;5.420;2023-07-09T15:12:28;9.18;;;6.10;;
72109;SDS011;59983;52.010;5.420;2023-07-09T15:15:22;13.17;;;6.10;;
72109;SDS011;59983;52.010;5.420;2023-07-09T15:17:45;12.27;;;6.80;;
72109;SDS011;59983;52.010;5.420;2023-07-09T15:20:16;8.98;;;6.28;;
72109;SDS011;59983;52.010;5.420;2023-07-09T15:22:45;9.48;;;5.78;;
72109;SDS011;59983;52.010;5.420;2023-07-09T15:25:14;8.35;;;6.47;;
72109;SDS011;59983;52.010;5.420;2023-07-09T15:27:43;11.77;;;6.90;;
72109;SDS011;59983;52.010;5.420;2023-07-09T15:30:21;11.23;;;6.63;;
72109;SDS011;59983;52.010;5.420;2023-07-09T15:32:49;9.68;;;6.43;;
72109;SDS011;59983;52.010;5.420;2023-07-09T15:35:17;10.85;;;6.43;;
72109;SDS011;59983;52.010;5.420;2023-07-09T15:37:45;10.68;;;6.88;;
72109;SDS011;59983;52.010;5.420;2023-07-09T15:40:19;10.60;;;6.30;;
72109;SDS011;59983;52.010;5.420;2023-07-09T15:42:49;10.73;;;7.20;;
72109;SDS011;59983;52.010;5.420;2023-07-09T15:45:20;13.38;;;6.72;;
72109;SDS011;59983;52.010;5.420;2023-07-09T15:47:47;12.60;;;7.97;;
72109;SDS011;59983;52.010;5.420;2023-07-09T15:50:17;13.60;;;6.75;;
72109;SDS011;59983;52.010;5.420;2023-07-09T15:52:48;7.10;;;6.50;;
72109;SDS011;59983;52.010;5.420;2023-07-09T15:55:16;12.35;;;6.80;;
72109;SDS011;59983;52.010;5.420;2023-07-09T15:57:48;12.52;;;6.97;;
72109;SDS011;59983;52.010;5.420;2023-07-09T16:00:18;11.23;;;7.00;;
72109;SDS011;59983;52.010;5.420;2023-07-09T16:02:47;9.75;;;7.05;;